Syringa, Idaho
Current Conditions -  °F | °C
As of 2:55 PM on Wednesday 22 Oct 2014 (Local Time) from KGIC Reporting Station
Scattered Clouds Scattered Clouds  
Wind Chill: 63°   Ceiling: Unl
Heat Index: 63°   Visibility: 10mi
Dew Point: 31°   Wind: 14mph
Humidity: 30%   Direction: 190°S
Pressure: 29.96"   Gusts: 28mph
Location:  46.2989°N, 115.619°W
Report Text: KGIC 222155Z AUTO 19012G24KT 10SM SCT090 17/M01 A2996 RMK AO1 T01701007
Loading
Personal Weather Stations






























Interactive Weather Map
Tropical Storm Tracking
New forecast layout! Learn more

10-Day Weather Forecast

Advertisements
Track Severe Weather on mobile